createdAt,value
2018-11-27T00:01:41.118Z,94554.00
2018-11-27T00:04:18.670Z,94553.00
2018-11-27T00:06:49.567Z,94555.00
2018-11-27T00:09:20.511Z,94562.00
2018-11-27T00:11:51.397Z,94556.00
2018-11-27T00:14:23.009Z,94560.00
2018-11-27T00:16:53.988Z,94566.00
2018-11-27T00:19:24.925Z,94569.00
2018-11-27T00:21:55.850Z,94570.00
2018-11-27T00:24:26.842Z,94569.00
2018-11-27T00:26:57.724Z,94571.00
2018-11-27T00:29:28.632Z,94573.00
2018-11-27T00:31:59.551Z,94570.00
2018-11-27T00:34:30.619Z,94575.00
2018-11-27T00:37:01.799Z,94579.00
2018-11-27T00:39:32.731Z,94577.00
2018-11-27T00:42:04.338Z,94582.00
2018-11-27T00:44:35.267Z,94589.00
2018-11-27T00:47:06.710Z,94594.00
2018-11-27T00:49:37.638Z,94602.00
2018-11-27T00:52:08.566Z,94601.00
2018-11-27T00:54:39.478Z,94603.00
2018-11-27T00:57:10.310Z,94607.00
2018-11-27T00:59:41.202Z,94607.00
2018-11-27T01:02:12.178Z,94605.00
2018-11-27T01:04:43.386Z,94609.00
2018-11-27T01:07:15.298Z,94610.00
2018-11-27T01:09:46.221Z,94609.00
2018-11-27T01:12:17.133Z,94610.00
2018-11-27T01:14:48.059Z,94614.00
2018-11-27T01:17:19.097Z,94613.00
2018-11-27T01:19:50.066Z,94618.00
2018-11-27T01:22:20.939Z,94620.00
2018-11-27T01:24:51.843Z,94624.00
2018-11-27T01:27:22.731Z,94621.00
2018-11-27T01:29:53.782Z,94622.00
2018-11-27T01:32:24.663Z,94623.00
2018-11-27T01:34:55.601Z,94630.00
2018-11-27T01:37:26.474Z,94636.00
2018-11-27T01:39:57.380Z,94632.00
2018-11-27T01:42:28.255Z,94631.00
2018-11-27T01:44:59.170Z,94632.00
2018-11-27T01:47:30.043Z,94634.00
2018-11-27T01:50:00.975Z,94632.00
2018-11-27T01:52:32.026Z,94629.00
2018-11-27T01:55:02.933Z,94629.00
2018-11-27T01:57:33.814Z,94631.00
2018-11-27T02:00:06.343Z,94634.00
2018-11-27T02:02:38.218Z,94633.00
2018-11-27T02:05:10.276Z,94633.00
2018-11-27T02:07:41.321Z,94627.00
2018-11-27T02:10:13.842Z,94624.00
2018-11-27T02:12:46.898Z,94621.00
2018-11-27T02:15:24.078Z,94622.00
2018-11-27T02:17:55.132Z,94624.00
2018-11-27T02:20:26.618Z,94626.00
2018-11-27T02:22:57.534Z,94630.00
2018-11-27T02:25:30.251Z,94633.00
2018-11-27T02:28:05.266Z,94635.00
2018-11-27T02:30:36.322Z,94635.00
2018-11-27T02:33:07.422Z,94642.00
2018-11-27T02:35:38.413Z,94643.00
2018-11-27T02:38:09.322Z,94646.00
2018-11-27T02:40:40.339Z,94644.00
2018-11-27T02:43:11.279Z,94645.00
2018-11-27T02:45:42.324Z,94647.00
2018-11-27T02:48:13.239Z,94643.00
2018-11-27T02:50:44.219Z,94649.00
2018-11-27T02:53:15.122Z,94648.00
2018-11-27T02:55:46.099Z,94652.00
2018-11-27T02:58:17.053Z,94657.00
2018-11-27T03:00:48.018Z,94663.00
2018-11-27T03:03:18.935Z,94659.00
2018-11-27T03:05:49.946Z,94666.00
2018-11-27T03:08:20.899Z,94664.00
2018-11-27T03:10:51.879Z,94672.00
2018-11-27T03:13:22.926Z,94676.00
2018-11-27T03:15:54.274Z,94675.00
2018-11-27T03:18:25.699Z,94677.00
2018-11-27T03:20:57.080Z,94681.00
2018-11-27T03:23:27.979Z,94680.00
2018-11-27T03:25:58.979Z,94680.00
2018-11-27T03:28:29.940Z,94680.00
2018-11-27T03:31:01.105Z,94676.00
2018-11-27T03:33:33.002Z,94682.00
2018-11-27T03:36:04.390Z,94687.00
2018-11-27T03:38:35.365Z,94687.00
2018-11-27T03:41:06.911Z,94695.00
2018-11-27T03:43:37.874Z,94692.00
2018-11-27T03:46:08.891Z,94696.00
2018-11-27T03:48:39.899Z,94704.00
2018-11-27T03:51:11.161Z,94698.00
2018-11-27T03:53:42.159Z,94701.00
2018-11-27T03:56:13.164Z,94703.00
2018-11-27T03:58:44.193Z,94704.00
2018-11-27T04:01:15.231Z,94706.00
2018-11-27T04:03:46.179Z,94714.00
2018-11-27T04:06:17.181Z,94713.00
2018-11-27T04:08:48.343Z,94716.00
2018-11-27T04:11:19.499Z,94713.00
2018-11-27T04:13:50.581Z,94711.00
2018-11-27T04:16:21.620Z,94718.00
2018-11-27T04:18:52.592Z,94719.00
2018-11-27T04:21:23.659Z,94721.00
2018-11-27T04:23:54.642Z,94720.00
2018-11-27T04:26:25.700Z,94726.00
2018-11-27T04:28:57.138Z,94721.00
2018-11-27T04:31:28.252Z,94725.00
2018-11-27T04:33:59.266Z,94729.00
2018-11-27T04:36:30.267Z,94731.00
2018-11-27T04:39:01.222Z,94733.00
2018-11-27T04:41:32.239Z,94734.00
2018-11-27T04:44:03.201Z,94739.00
2018-11-27T04:46:34.983Z,94737.00
2018-11-27T04:49:06.603Z,94741.00
2018-11-27T04:51:37.680Z,94741.00
2018-11-27T04:54:08.632Z,94741.00
2018-11-27T04:56:39.714Z,94743.00
2018-11-27T04:59:10.739Z,94743.00
2018-11-27T05:01:41.723Z,94758.00
2018-11-27T05:04:12.710Z,94754.00
2018-11-27T05:06:45.762Z,94767.00
2018-11-27T05:09:16.832Z,94773.00
2018-11-27T05:11:47.898Z,94773.00
2018-11-27T05:14:19.008Z,94767.00
2018-11-27T05:16:50.918Z,94773.00
2018-11-27T05:19:21.958Z,94770.00
2018-11-27T05:21:53.018Z,94779.00
2018-11-27T05:24:23.958Z,94783.00
2018-11-27T05:26:55.024Z,94792.00
2018-11-27T05:29:25.998Z,94794.00
2018-11-27T05:31:57.051Z,94798.00
2018-11-27T05:34:28.100Z,94800.00
2018-11-27T05:37:00.211Z,94802.00
2018-11-27T05:39:31.147Z,94791.00
2018-11-27T05:42:02.150Z,94791.00
2018-11-27T05:44:33.121Z,94804.00
2018-11-27T05:47:04.161Z,94806.00
2018-11-27T05:49:35.105Z,94811.00
2018-11-27T05:52:06.142Z,94814.00
2018-11-27T05:54:37.074Z,94809.00
2018-11-27T05:57:08.439Z,94809.00
2018-11-27T05:59:39.419Z,94814.00
2018-11-27T06:02:10.939Z,94817.00
2018-11-27T06:04:41.873Z,94819.00
2018-11-27T06:07:12.874Z,94825.00
2018-11-27T06:09:43.891Z,94820.00
2018-11-27T06:12:15.199Z,94830.00
2018-11-27T06:14:46.157Z,94832.00
2018-11-27T06:17:17.166Z,94838.00
2018-11-27T06:19:48.085Z,94840.00
2018-11-27T06:22:19.100Z,94836.00
2018-11-27T06:24:50.086Z,94851.00
2018-11-27T06:27:21.020Z,94855.00
2018-11-27T06:29:52.018Z,94852.00
2018-11-27T06:32:23.079Z,94856.00
2018-11-27T06:34:54.140Z,94866.00
2018-11-27T06:37:25.151Z,94866.00
2018-11-27T06:39:56.234Z,94875.00
2018-11-27T06:42:27.414Z,94877.00
2018-11-27T06:44:58.466Z,94882.00
2018-11-27T06:47:29.428Z,94880.00
2018-11-27T06:50:00.753Z,94884.00
2018-11-27T06:52:31.698Z,94888.00
2018-11-27T06:55:02.711Z,94892.00
2018-11-27T06:57:33.683Z,94895.00
2018-11-27T07:00:05.838Z,94896.00
2018-11-27T07:02:37.956Z,94900.00
2018-11-27T07:05:08.775Z,94902.00
2018-11-27T07:07:42.067Z,94913.00
2018-11-27T07:10:18.339Z,94910.00
2018-11-27T07:12:50.769Z,94924.00
2018-11-27T07:15:24.322Z,94922.00
2018-11-27T07:17:55.200Z,94924.00
2018-11-27T07:20:26.219Z,94920.00
2018-11-27T07:22:57.218Z,94924.00
2018-11-27T07:25:28.279Z,94931.00
2018-11-27T07:27:59.843Z,94931.00
2018-11-27T07:30:30.868Z,94943.00
2018-11-27T07:33:01.892Z,94947.00
2018-11-27T07:35:33.127Z,94951.00
2018-11-27T07:38:04.167Z,94958.00
2018-11-27T07:40:35.301Z,94956.00
2018-11-27T07:43:11.866Z,94964.00
2018-11-27T07:45:42.974Z,94970.00
2018-11-27T07:48:13.898Z,94967.00
2018-11-27T07:50:44.919Z,94973.00
2018-11-27T07:53:15.863Z,94966.00
2018-11-27T07:55:46.871Z,94970.00
2018-11-27T07:58:17.843Z,94983.00
2018-11-27T08:00:49.514Z,94978.00
2018-11-27T08:03:21.171Z,94985.00
2018-11-27T08:05:52.268Z,94983.00
2018-11-27T08:08:23.088Z,94989.00
2018-11-27T08:10:54.270Z,94993.00
2018-11-27T08:13:25.329Z,94993.00
2018-11-27T08:15:57.157Z,94999.00
2018-11-27T08:18:28.402Z,95001.00
2018-11-27T08:20:59.881Z,95006.00
2018-11-27T08:23:30.859Z,95006.00
2018-11-27T08:26:04.011Z,95006.00
2018-11-27T08:28:35.011Z,95009.00
2018-11-27T08:31:06.075Z,95010.00
2018-11-27T08:33:37.079Z,95015.00
2018-11-27T08:36:08.365Z,95025.00
2018-11-27T08:38:39.301Z,95024.00
2018-11-27T08:41:10.311Z,95034.00
2018-11-27T08:43:41.359Z,95043.00
2018-11-27T08:46:12.479Z,95047.00
2018-11-27T08:48:43.519Z,95053.00
2018-11-27T08:51:14.621Z,95052.00
2018-11-27T08:53:45.873Z,95057.00
2018-11-27T08:56:17.013Z,95064.00
2018-11-27T08:58:48.030Z,95064.00
2018-11-27T09:01:19.174Z,95075.00
2018-11-27T09:03:50.199Z,95077.00
2018-11-27T09:06:21.987Z,95075.00
2018-11-27T09:08:52.906Z,95082.00
2018-11-27T09:11:24.019Z,95082.00
2018-11-27T09:13:54.976Z,95090.00
2018-11-27T09:16:25.962Z,95095.00
2018-11-27T09:18:56.934Z,95101.00
2018-11-27T09:21:27.938Z,95100.00
2018-11-27T09:23:58.993Z,95112.00
2018-11-27T09:26:30.110Z,95111.00
2018-11-27T09:29:01.919Z,95112.00
2018-11-27T09:31:32.998Z,95118.00
2018-11-27T09:34:03.937Z,95118.00
2018-11-27T09:36:34.978Z,95118.00
2018-11-27T09:39:10.195Z,95120.00
2018-11-27T09:41:41.216Z,95128.00
2018-11-27T09:44:12.178Z,95129.00
2018-11-27T09:46:43.279Z,95123.00
2018-11-27T09:49:14.239Z,95122.00
2018-11-27T09:51:45.271Z,95128.00
2018-11-27T09:54:16.227Z,95138.00
2018-11-27T09:56:47.209Z,95134.00
2018-11-27T09:59:18.129Z,95142.00
2018-11-27T10:01:49.122Z,95142.00
2018-11-27T10:04:20.101Z,95141.00
2018-11-27T10:06:52.397Z,95137.00
2018-11-27T10:09:23.700Z,95134.00
2018-11-27T10:11:54.766Z,95136.00
2018-11-27T10:14:25.686Z,95139.00
2018-11-27T10:16:57.678Z,95142.00
2018-11-27T10:19:29.472Z,95141.00
2018-11-27T10:22:00.450Z,95140.00
2018-11-27T10:24:31.567Z,95134.00
2018-11-27T10:27:02.645Z,95136.00
2018-11-27T10:29:33.610Z,95130.00
2018-11-27T10:32:04.752Z,95130.00
2018-11-27T10:34:35.848Z,95130.00
2018-11-27T10:37:07.219Z,95126.00
2018-11-27T10:39:38.138Z,95132.00
2018-11-27T10:42:09.651Z,95125.00
2018-11-27T10:44:41.043Z,95131.00
2018-11-27T10:47:13.672Z,95132.00
2018-11-27T10:49:44.578Z,95136.00
2018-11-27T10:52:15.514Z,95131.00
2018-11-27T10:54:46.481Z,95133.00
2018-11-27T10:57:17.438Z,95132.00
2018-11-27T10:59:48.331Z,95133.00
2018-11-27T11:02:26.031Z,95133.00
2018-11-27T11:04:57.139Z,95135.00
2018-11-27T11:07:28.238Z,95135.00
2018-11-27T11:09:59.200Z,95141.00
2018-11-27T11:12:31.141Z,95137.00
2018-11-27T11:15:02.124Z,95138.00
2018-11-27T11:17:33.163Z,95137.00
2018-11-27T11:20:05.102Z,95140.00
2018-11-27T11:22:37.242Z,95135.00
2018-11-27T11:25:15.943Z,95149.00
2018-11-27T11:27:49.197Z,95143.00
2018-11-27T11:30:21.705Z,95146.00
2018-11-27T11:32:53.534Z,95150.00
2018-11-27T11:35:25.092Z,95149.00
2018-11-27T11:37:56.122Z,95150.00
2018-11-27T11:40:27.179Z,95145.00
2018-11-27T11:42:59.782Z,95161.00
2018-11-27T11:45:30.779Z,95150.00
2018-11-27T11:48:01.879Z,95154.00
2018-11-27T11:50:34.977Z,95152.00
2018-11-27T11:53:11.759Z,95151.00
2018-11-27T11:55:43.115Z,95152.00
2018-11-27T11:58:15.141Z,95155.00
2018-11-27T12:00:49.892Z,95156.00
2018-11-27T12:03:23.014Z,95156.00
2018-11-27T12:05:54.010Z,95161.00
2018-11-27T12:08:25.061Z,95155.00
2018-11-27T12:10:56.119Z,95161.00
2018-11-27T12:13:27.187Z,95164.00
2018-11-27T12:15:58.254Z,95169.00
2018-11-27T12:18:29.259Z,95176.00
2018-11-27T12:21:00.413Z,95176.00
2018-11-27T12:23:31.439Z,95179.00
2018-11-27T12:26:02.459Z,95178.00
2018-11-27T12:28:36.052Z,95176.00
2018-11-27T12:31:08.059Z,95183.00
2018-11-27T12:33:41.918Z,95185.00
2018-11-27T12:36:13.033Z,95194.00
2018-11-27T12:38:44.830Z,95200.00
2018-11-27T12:41:16.236Z,95188.00
2018-11-27T12:43:47.283Z,95189.00
2018-11-27T12:46:18.944Z,95191.00
2018-11-27T12:48:50.097Z,95197.00
2018-11-27T12:51:21.097Z,95190.00
2018-11-27T12:53:52.179Z,95194.00
2018-11-27T12:56:23.531Z,95200.00
2018-11-27T12:58:54.588Z,95207.00
2018-11-27T13:01:25.591Z,95214.00
2018-11-27T13:03:56.682Z,95217.00
2018-11-27T13:06:27.972Z,95218.00
2018-11-27T13:08:59.102Z,95215.00
2018-11-27T13:11:30.122Z,95223.00
2018-11-27T13:14:02.551Z,95226.00
2018-11-27T13:16:33.495Z,95221.00
2018-11-27T13:19:04.695Z,95228.00
2018-11-27T13:21:36.393Z,95226.00
2018-11-27T13:24:07.580Z,95230.00
2018-11-27T13:26:38.610Z,95232.00
2018-11-27T13:29:09.598Z,95233.00
2018-11-27T13:31:40.620Z,95229.00
2018-11-27T13:34:15.610Z,95229.00
2018-11-27T13:36:46.714Z,95232.00
2018-11-27T13:39:41.940Z,95236.00
2018-11-27T13:42:13.162Z,95243.00
2018-11-27T13:44:44.188Z,95245.00
2018-11-27T13:47:15.650Z,95249.00
2018-11-27T13:49:46.721Z,95242.00
2018-11-27T13:52:17.754Z,95246.00
2018-11-27T13:54:49.017Z,95254.00
2018-11-27T13:57:19.991Z,95257.00
2018-11-27T13:59:51.049Z,95260.00
2018-11-27T14:02:22.067Z,95263.00
2018-11-27T14:04:53.066Z,95267.00
2018-11-27T14:07:24.032Z,95271.00
2018-11-27T14:09:55.710Z,95271.00
2018-11-27T14:12:26.743Z,95267.00
2018-11-27T14:14:57.867Z,95276.00
2018-11-27T14:17:30.295Z,95287.00
2018-11-27T14:20:01.469Z,95280.00
2018-11-27T14:22:34.734Z,95286.00
2018-11-27T14:25:06.137Z,95289.00
2018-11-27T14:27:37.042Z,95295.00
2018-11-27T14:30:22.319Z,95306.00
2018-11-27T14:32:53.932Z,95300.00
2018-11-27T14:35:25.603Z,95303.00
2018-11-27T14:37:57.179Z,95304.00
2018-11-27T14:40:29.105Z,95311.00
2018-11-27T14:43:00.075Z,95315.00
2018-11-27T14:45:31.107Z,95322.00
2018-11-27T14:48:06.798Z,95324.00
2018-11-27T14:50:37.900Z,95320.00
2018-11-27T14:53:09.862Z,95329.00
2018-11-27T14:55:41.238Z,95325.00
2018-11-27T14:58:15.156Z,95324.00
2018-11-27T15:00:44.033Z,95332.00
2018-11-27T15:03:16.720Z,95334.00
2018-11-27T15:05:49.019Z,95334.00
2018-11-27T15:08:21.761Z,95333.00
2018-11-27T15:10:52.954Z,95337.00
2018-11-27T15:13:26.238Z,95341.00
2018-11-27T15:15:57.917Z,95348.00
2018-11-27T15:18:29.451Z,95348.00
2018-11-27T15:21:02.267Z,95354.00
2018-11-27T15:23:33.420Z,95356.00
2018-11-27T15:26:06.041Z,95358.00
2018-11-27T15:28:37.905Z,95366.00
2018-11-27T15:31:09.705Z,95377.00
2018-11-27T15:33:41.340Z,95383.00
2018-11-27T15:36:12.449Z,95379.00
2018-11-27T15:38:44.225Z,95380.00
2018-11-27T15:41:15.533Z,95380.00
2018-11-27T15:43:47.047Z,95374.00
2018-11-27T15:46:18.993Z,95375.00
2018-11-27T15:48:50.042Z,95382.00
2018-11-27T15:51:22.063Z,95379.00
2018-11-27T15:53:53.220Z,95388.00
2018-11-27T15:56:25.708Z,95385.00
2018-11-27T15:58:59.159Z,95384.00
2018-11-27T16:01:31.423Z,95390.00
2018-11-27T16:04:02.446Z,95396.00
2018-11-27T16:06:33.761Z,95400.00
2018-11-27T16:09:07.620Z,95404.00
2018-11-27T16:11:40.142Z,95406.00
2018-11-27T16:14:11.224Z,95412.00
2018-11-27T16:16:42.563Z,95417.00
2018-11-27T16:19:14.547Z,95409.00
2018-11-27T16:21:47.429Z,95414.00
2018-11-27T16:24:18.515Z,95411.00
2018-11-27T16:26:50.113Z,95412.00
2018-11-27T16:29:21.577Z,95412.00
2018-11-27T16:31:53.108Z,95419.00
2018-11-27T16:34:24.424Z,95415.00
2018-11-27T16:36:55.480Z,95417.00
2018-11-27T16:39:27.372Z,95420.00
2018-11-27T16:41:59.017Z,95420.00
2018-11-27T16:44:30.572Z,95421.00
2018-11-27T16:47:02.134Z,95425.00
2018-11-27T16:49:33.168Z,95431.00
2018-11-27T16:52:04.448Z,95435.00
2018-11-27T16:54:35.550Z,95436.00
2018-11-27T16:57:06.951Z,95426.00
2018-11-27T16:59:38.043Z,95435.00
2018-11-27T17:02:10.102Z,95434.00
2018-11-27T17:04:41.249Z,95435.00
2018-11-27T17:07:12.303Z,95441.00
2018-11-27T17:09:43.925Z,95442.00
2018-11-27T17:12:16.053Z,95438.00
2018-11-27T17:14:47.026Z,95438.00
2018-11-27T17:17:18.431Z,95443.00
2018-11-27T17:19:49.506Z,95444.00
2018-11-27T17:22:20.673Z,95448.00
2018-11-27T17:24:52.180Z,95444.00
2018-11-27T17:27:23.203Z,95453.00
2018-11-27T17:29:54.217Z,95461.00
2018-11-27T17:32:26.305Z,95466.00
2018-11-27T17:34:57.346Z,95467.00
2018-11-27T17:37:28.439Z,95471.00
2018-11-27T17:39:59.494Z,95465.00
2018-11-27T17:42:30.619Z,95471.00
2018-11-27T17:45:01.742Z,95479.00
2018-11-27T17:47:32.919Z,95479.00
2018-11-27T17:50:04.467Z,95479.00
2018-11-27T17:52:36.759Z,95477.00
2018-11-27T17:55:09.943Z,95485.00
2018-11-27T17:57:41.499Z,95490.00
2018-11-27T18:00:23.186Z,95496.00
2018-11-27T18:02:57.163Z,95501.00
2018-11-27T18:05:28.519Z,95502.00
2018-11-27T18:08:00.726Z,95509.00
2018-11-27T18:10:30.741Z,95511.00
2018-11-27T18:13:02.200Z,95509.00
2018-11-27T18:15:34.099Z,95509.00
2018-11-27T18:18:05.411Z,95513.00
2018-11-27T18:20:36.679Z,95516.00
2018-11-27T18:23:07.780Z,95517.00
2018-11-27T18:25:38.808Z,95516.00
2018-11-27T18:28:09.972Z,95518.00
2018-11-27T18:30:40.998Z,95517.00
2018-11-27T18:33:16.091Z,95525.00
2018-11-27T18:35:47.243Z,95526.00
2018-11-27T18:38:18.339Z,95528.00
2018-11-27T18:40:49.812Z,95527.00
2018-11-27T18:43:21.844Z,95529.00
2018-11-27T18:45:52.947Z,95533.00
2018-11-27T18:48:24.180Z,95535.00
2018-11-27T18:50:55.273Z,95535.00
2018-11-27T18:53:27.519Z,95540.00
2018-11-27T18:55:58.708Z,95542.00
2018-11-27T18:58:29.858Z,95550.00
2018-11-27T19:01:01.242Z,95546.00
2018-11-27T19:03:32.490Z,95552.00
2018-11-27T19:06:03.556Z,95556.00
2018-11-27T19:08:34.879Z,95551.00
2018-11-27T19:11:07.098Z,95560.00
2018-11-27T19:13:39.087Z,95562.00
2018-11-27T19:16:10.512Z,95565.00
2018-11-27T19:18:41.878Z,95558.00
2018-11-27T19:21:13.239Z,95562.00
2018-11-27T19:23:44.618Z,95569.00
2018-11-27T19:26:16.787Z,95570.00
2018-11-27T19:28:48.373Z,95577.00
2018-11-27T19:31:20.631Z,95578.00
2018-11-27T19:33:52.162Z,95585.00
2018-11-27T19:36:24.559Z,95592.00
2018-11-27T19:38:57.102Z,95592.00
2018-11-27T19:41:31.551Z,95590.00
2018-11-27T19:44:03.951Z,95588.00
2018-11-27T19:46:35.490Z,95592.00
2018-11-27T19:49:07.095Z,95596.00
2018-11-27T19:51:38.506Z,95605.00
2018-11-27T19:54:10.529Z,95603.00
2018-11-27T19:56:41.721Z,95604.00
2018-11-27T19:59:13.442Z,95602.00
2018-11-27T20:01:44.990Z,95598.00
2018-11-27T20:04:16.702Z,95602.00
2018-11-27T20:06:48.398Z,95606.00
2018-11-27T20:09:20.139Z,95606.00
2018-11-27T20:11:51.724Z,95617.00
2018-11-27T20:14:23.876Z,95622.00
2018-11-27T20:16:55.634Z,95617.00
2018-11-27T20:19:27.393Z,95617.00
2018-11-27T20:21:59.205Z,95621.00
2018-11-27T20:24:30.945Z,95622.00
2018-11-27T20:27:02.657Z,95629.00
2018-11-27T20:29:34.371Z,95628.00
2018-11-27T20:32:06.233Z,95631.00
2018-11-27T20:34:37.921Z,95634.00
2018-11-27T20:37:09.572Z,95634.00
2018-11-27T20:39:41.051Z,95639.00
2018-11-27T20:42:13.818Z,95648.00
2018-11-27T20:44:45.500Z,95651.00
2018-11-27T20:47:17.893Z,95660.00
2018-11-27T20:49:49.505Z,95665.00
2018-11-27T20:52:21.385Z,95660.00
2018-11-27T20:54:52.939Z,95664.00
2018-11-27T20:57:25.622Z,95672.00
2018-11-27T20:59:57.199Z,95673.00
2018-11-27T21:02:28.456Z,95673.00
2018-11-27T21:04:59.807Z,95673.00
2018-11-27T21:07:31.335Z,95669.00
2018-11-27T21:10:02.549Z,95669.00
2018-11-27T21:12:33.683Z,95673.00
2018-11-27T21:15:05.526Z,95668.00
2018-11-27T21:17:38.735Z,95670.00
2018-11-27T21:20:12.589Z,95677.00
2018-11-27T21:22:44.090Z,95681.00
2018-11-27T21:25:24.227Z,95688.00
2018-11-27T21:28:02.893Z,95680.00
2018-11-27T21:30:34.263Z,95678.00
2018-11-27T21:33:08.800Z,95678.00
2018-11-27T21:35:39.924Z,95680.00
2018-11-27T21:38:11.443Z,95680.00
2018-11-27T21:40:43.637Z,95683.00
2018-11-27T21:43:32.584Z,95683.00
2018-11-27T21:46:10.309Z,95684.00
2018-11-27T21:48:41.459Z,95689.00
2018-11-27T21:51:13.071Z,95699.00
2018-11-27T21:53:44.449Z,95699.00
2018-11-27T21:56:15.529Z,95695.00
2018-11-27T21:58:47.131Z,95685.00
2018-11-27T22:01:18.207Z,95681.00
2018-11-27T22:03:49.198Z,95686.00
2018-11-27T22:06:21.265Z,95686.00
2018-11-27T22:08:52.519Z,95688.00
2018-11-27T22:11:23.417Z,95694.00
2018-11-27T22:13:55.139Z,95687.00
2018-11-27T22:16:27.840Z,95691.00
2018-11-27T22:18:58.804Z,95704.00
2018-11-27T22:21:29.725Z,95703.00
2018-11-27T22:24:00.773Z,95708.00
2018-11-27T22:26:31.739Z,95706.00
2018-11-27T22:29:04.257Z,95707.00
2018-11-27T22:31:41.016Z,95709.00
2018-11-27T22:34:12.180Z,95717.00
2018-11-27T22:36:43.243Z,95716.00
2018-11-27T22:39:15.537Z,95720.00
2018-11-27T22:41:46.742Z,95722.00
2018-11-27T22:44:17.820Z,95726.00
2018-11-27T22:46:48.787Z,95722.00
2018-11-27T22:49:19.798Z,95727.00
2018-11-27T22:51:51.133Z,95716.00
2018-11-27T22:54:23.021Z,95727.00
2018-11-27T22:56:54.028Z,95722.00
2018-11-27T22:59:25.918Z,95719.00
2018-11-27T23:01:56.990Z,95718.00
2018-11-27T23:04:29.338Z,95715.00
2018-11-27T23:07:00.338Z,95718.00
2018-11-27T23:09:31.459Z,95722.00
2018-11-27T23:12:02.560Z,95721.00
2018-11-27T23:14:33.579Z,95726.00
2018-11-27T23:17:04.563Z,95730.00
2018-11-27T23:19:36.483Z,95730.00
2018-11-27T23:22:07.622Z,95733.00
2018-11-27T23:24:38.620Z,95734.00
2018-11-27T23:27:09.597Z,95733.00
2018-11-27T23:29:40.875Z,95735.00
2018-11-27T23:32:11.862Z,95733.00
2018-11-27T23:34:42.910Z,95739.00
2018-11-27T23:37:13.855Z,95736.00
2018-11-27T23:39:44.839Z,95743.00
2018-11-27T23:42:17.598Z,95738.00
2018-11-27T23:44:48.541Z,95734.00
2018-11-27T23:47:20.498Z,95734.00
2018-11-27T23:49:53.078Z,95735.00
2018-11-27T23:52:24.053Z,95740.00
2018-11-27T23:54:55.074Z,95736.00
2018-11-27T23:57:25.975Z,95744.00
2018-11-27T23:59:57.102Z,95731.00
